This is the latest recevied weather packets stored in our database for station/object G6UYG-13. If no packets are shown the sender has not sent any weather packets the latest 10 day(s).
| Time | Temp. | Humidity | Pressure | Rain* | Wind** | Luminosity | Snow |
|---|---|---|---|---|---|---|---|
| 1777811864 | 16.11° C | 76% | 1007.6 hPa | 0 mm | - | 473 W/m² | - |
| 1777811444 | 16.11° C | 78% | 1007.5 hPa | 0 mm | - | 849 W/m² | - |
| 1777811024 | 15.56° C | 78% | 1007.6 hPa | 0 mm | - | 905 W/m² | - |
| 1777810847 | 15° C | 80% | 1007.6 hPa | 0 mm | - | 893 W/m² | - |
| 1777810604 | 15° C | 80% | 1007.6 hPa | 0 mm | - | 893 W/m² | - |
| 1777810189 | 13.89° C | 84% | 1007.6 hPa | 0 mm | - | 990 W/m² | - |
| 1777810184 | 15° C | 81% | 1007.6 hPa | 0 mm | - | 912 W/m² | - |
| 1777809764 | 13.89° C | 84% | 1007.6 hPa | 0 mm | - | 990 W/m² | - |
| 1777809344 | 13.33° C | 85% | 1007.7 hPa | 0 mm | - | 302 W/m² | - |
| 1777808925 | 13.33° C | 85% | 1007.7 hPa | 0 mm | - | 408 W/m² | - |
| 1777808734 | 13.33° C | 85% | 1007.7 hPa | 0 mm | - | 246 W/m² | - |
| 1777808505 | 13.33° C | 85% | 1007.7 hPa | 0 mm | - | 246 W/m² | - |
| 1777808085 | 13.33° C | 85% | 1007.7 hPa | 0 mm | - | 153 W/m² | - |
| 1777807665 | 13.33° C | 85% | 1007.6 hPa | 0 mm | - | 148 W/m² | - |
| 1777807245 | 13.33° C | 85% | 1007.6 hPa | 0 mm | - | 165 W/m² | - |
| 1777806825 | 13.33° C | 85% | 1007.6 hPa | 0 mm | - | 216 W/m² | - |
| 1777806405 | 13.33° C | 85% | 1007.6 hPa | 0 mm | - | 120 W/m² | - |
| 1777805985 | 13.33° C | 85% | 1007.6 hPa | 0 mm | - | 158 W/m² | - |
| 1777805565 | 13.33° C | 86% | 1007.7 hPa | 0 mm | - | 271 W/m² | - |
| 1777805145 | 13.33° C | 86% | 1007.6 hPa | 0 mm | - | 243 W/m² | - |
| 1777804725 | 13.33° C | 87% | 1007.6 hPa | 0 mm | - | 223 W/m² | - |
| 1777804443 | 12.78° C | 86% | 1007.6 hPa | 0 mm | - | 299 W/m² | - |
| 1777804305 | 12.78° C | 86% | 1007.6 hPa | 0 mm | - | 299 W/m² | - |
| 1777803885 | 12.78° C | 86% | 1007.5 hPa | 0 mm | - | 241 W/m² | - |
| 1777803465 | 12.78° C | 86% | 1007.6 hPa | 0 mm | - | 207 W/m² | - |
* Rain latest hour (hover to see other rain measurements)
** Current wind speed in m/s (hover to see current wind gust speed)